createdAt,value
2022-11-29T00:00:40.839Z,22.70
2022-11-29T00:01:40.815Z,23.00
2022-11-29T00:02:40.908Z,22.90
2022-11-29T00:03:40.777Z,24.30
2022-11-29T00:04:40.866Z,24.70
2022-11-29T00:05:40.752Z,23.90
2022-11-29T00:06:40.706Z,21.60
2022-11-29T00:07:40.734Z,22.90
2022-11-29T00:08:40.666Z,22.40
2022-11-29T00:09:40.641Z,22.80
2022-11-29T00:10:40.622Z,22.10
2022-11-29T00:11:40.600Z,21.90
2022-11-29T00:12:40.578Z,22.50
2022-11-29T00:13:40.551Z,22.20
2022-11-29T00:14:40.654Z,21.90
2022-11-29T00:15:40.526Z,22.20
2022-11-29T00:16:40.545Z,23.60
2022-11-29T00:17:40.474Z,23.10
2022-11-29T00:18:40.455Z,23.60
2022-11-29T00:19:40.434Z,21.90
2022-11-29T00:20:40.408Z,23.90
2022-11-29T00:21:40.410Z,22.70
2022-11-29T00:22:40.362Z,23.40
2022-11-29T00:23:40.344Z,23.20
2022-11-29T00:24:40.385Z,22.50
2022-11-29T00:25:40.296Z,22.70
2022-11-29T00:26:40.279Z,22.70
2022-11-29T00:27:40.259Z,22.80
2022-11-29T00:28:40.260Z,22.40
2022-11-29T00:29:40.217Z,21.40
2022-11-29T00:30:40.259Z,22.30
2022-11-29T00:31:40.174Z,21.30
2022-11-29T00:32:40.150Z,21.80
2022-11-29T00:33:40.125Z,22.80
2022-11-29T00:34:40.179Z,24.30
2022-11-29T00:35:40.089Z,23.30
2022-11-29T00:36:40.066Z,22.40
2022-11-29T00:37:40.067Z,21.30
2022-11-29T00:38:40.020Z,23.10
2022-11-29T00:39:39.999Z,20.90
2022-11-29T00:40:39.981Z,21.00
2022-11-29T00:41:39.953Z,21.20
2022-11-29T00:42:39.937Z,22.00
2022-11-29T00:43:39.912Z,20.80
2022-11-29T00:44:39.896Z,22.00
2022-11-29T00:45:39.931Z,22.50
2022-11-29T00:46:39.852Z,22.20
2022-11-29T00:47:39.829Z,22.80
2022-11-29T00:48:39.806Z,22.80
2022-11-29T00:49:39.786Z,21.20
2022-11-29T00:50:39.782Z,21.90
2022-11-29T00:51:39.742Z,23.50
2022-11-29T00:52:39.724Z,23.50
2022-11-29T00:53:39.721Z,26.20
2022-11-29T00:54:39.683Z,24.40
2022-11-29T00:55:39.653Z,25.90
2022-11-29T00:56:39.635Z,24.90
2022-11-29T00:57:39.614Z,23.50
2022-11-29T00:58:39.595Z,25.80
2022-11-29T00:59:39.571Z,24.50
2022-11-29T01:00:39.551Z,24.70
2022-11-29T01:01:39.551Z,24.00
2022-11-29T01:02:39.568Z,22.40
2022-11-29T01:03:39.517Z,24.60
2022-11-29T01:04:39.467Z,25.60
2022-11-29T01:05:39.440Z,26.60
2022-11-29T01:06:39.449Z,24.30
2022-11-29T01:07:39.431Z,22.60
2022-11-29T01:08:39.377Z,21.90
2022-11-29T01:09:39.372Z,22.80
2022-11-29T01:10:39.336Z,23.30
2022-11-29T01:11:39.313Z,23.40
2022-11-29T01:12:39.303Z,22.10
2022-11-29T01:13:39.279Z,23.20
2022-11-29T01:14:39.245Z,23.90
2022-11-29T01:15:39.223Z,23.40
2022-11-29T01:16:39.239Z,23.40
2022-11-29T01:17:39.184Z,23.50
2022-11-29T01:18:39.165Z,23.10
2022-11-29T01:19:39.141Z,24.60
2022-11-29T01:20:39.116Z,23.30
2022-11-29T01:21:39.096Z,23.90
2022-11-29T01:22:39.077Z,23.40
2022-11-29T01:23:39.054Z,24.20
2022-11-29T01:24:39.032Z,24.70
2022-11-29T01:25:39.024Z,25.00
2022-11-29T01:26:38.998Z,25.70
2022-11-29T01:27:38.974Z,25.60
2022-11-29T01:28:38.947Z,24.30
2022-11-29T01:29:38.925Z,24.30
2022-11-29T01:30:39.021Z,24.60
2022-11-29T01:31:38.884Z,25.80
2022-11-29T01:32:38.871Z,25.00
2022-11-29T01:33:38.838Z,25.40
2022-11-29T01:34:38.828Z,23.20
2022-11-29T01:35:38.804Z,24.10
2022-11-29T01:36:38.775Z,24.40
2022-11-29T01:37:38.752Z,24.90
2022-11-29T01:38:38.733Z,25.70
2022-11-29T01:39:38.707Z,23.30
2022-11-29T01:40:38.693Z,23.50
2022-11-29T01:41:38.695Z,24.60
2022-11-29T01:42:38.645Z,23.60
2022-11-29T01:43:38.621Z,25.60
2022-11-29T01:44:38.609Z,25.80
2022-11-29T01:45:38.653Z,25.50
2022-11-29T01:46:38.563Z,27.00
2022-11-29T01:47:38.535Z,26.70
2022-11-29T01:48:38.518Z,25.80
2022-11-29T01:49:38.495Z,25.30
2022-11-29T01:50:38.474Z,23.70
2022-11-29T01:51:38.452Z,23.20
2022-11-29T01:52:38.428Z,23.60
2022-11-29T01:53:38.409Z,24.40
2022-11-29T01:54:38.408Z,25.00
2022-11-29T01:55:38.380Z,25.50
2022-11-29T01:56:38.348Z,24.50
2022-11-29T01:57:38.344Z,24.80
2022-11-29T01:58:38.303Z,26.20
2022-11-29T01:59:38.278Z,26.20
2022-11-29T02:00:38.261Z,24.80
2022-11-29T02:01:38.358Z,24.50
2022-11-29T02:02:38.297Z,26.40
2022-11-29T02:03:38.196Z,25.20
2022-11-29T02:04:38.190Z,27.00
2022-11-29T02:05:38.155Z,28.70
2022-11-29T02:06:38.135Z,31.00
2022-11-29T02:07:38.120Z,30.30
2022-11-29T02:08:38.085Z,29.00
2022-11-29T02:09:38.064Z,27.00
2022-11-29T02:10:38.052Z,26.20
2022-11-29T02:11:38.020Z,29.70
2022-11-29T02:12:38.003Z,26.40
2022-11-29T02:13:38.000Z,25.70
2022-11-29T02:14:38.079Z,26.70
2022-11-29T02:15:38.023Z,26.30
2022-11-29T02:16:37.912Z,27.40
2022-11-29T02:17:37.896Z,26.20
2022-11-29T02:18:37.875Z,29.30
2022-11-29T02:19:37.849Z,25.80
2022-11-29T02:20:37.832Z,26.70
2022-11-29T02:21:37.802Z,25.10
2022-11-29T02:22:37.783Z,25.90
2022-11-29T02:23:37.764Z,25.80
2022-11-29T02:24:37.745Z,27.60
2022-11-29T02:25:37.718Z,27.40
2022-11-29T02:26:37.700Z,28.30
2022-11-29T02:27:37.675Z,25.60
2022-11-29T02:28:37.656Z,27.80
2022-11-29T02:29:37.660Z,25.90
2022-11-29T02:30:37.677Z,26.70
2022-11-29T02:31:37.588Z,25.70
2022-11-29T02:32:37.571Z,27.80
2022-11-29T02:33:37.557Z,26.00
2022-11-29T02:34:37.532Z,27.30
2022-11-29T02:35:37.501Z,25.60
2022-11-29T02:36:37.490Z,26.00
2022-11-29T02:37:37.460Z,24.80
2022-11-29T02:38:37.440Z,27.40
2022-11-29T02:39:37.416Z,28.30
2022-11-29T02:40:37.400Z,26.60
2022-11-29T02:41:37.371Z,27.30
2022-11-29T02:42:37.356Z,25.60
2022-11-29T02:43:37.333Z,26.50
2022-11-29T02:44:37.311Z,26.70
2022-11-29T02:45:37.312Z,26.70
2022-11-29T02:46:37.272Z,26.30
2022-11-29T02:47:37.247Z,25.70
2022-11-29T02:48:37.226Z,28.30
2022-11-29T02:49:37.202Z,28.10
2022-11-29T02:50:37.192Z,26.60
2022-11-29T02:51:37.164Z,28.50
2022-11-29T02:52:37.138Z,26.30
2022-11-29T02:53:37.119Z,25.70
2022-11-29T02:54:37.100Z,27.10
2022-11-29T02:55:37.072Z,28.40
2022-11-29T02:56:37.058Z,28.90
2022-11-29T02:57:37.029Z,28.80
2022-11-29T02:58:37.015Z,30.20
2022-11-29T02:59:36.986Z,27.30
2022-11-29T03:00:36.972Z,32.20
2022-11-29T03:01:37.080Z,28.60
2022-11-29T03:02:36.990Z,26.70
2022-11-29T03:03:36.905Z,33.00
2022-11-29T03:04:36.889Z,30.30
2022-11-29T03:05:36.866Z,29.80
2022-11-29T03:06:36.843Z,33.00
2022-11-29T03:07:36.921Z,27.80
2022-11-29T03:08:36.799Z,29.50
2022-11-29T03:09:36.775Z,26.30
2022-11-29T03:10:36.757Z,27.10
2022-11-29T03:11:36.735Z,30.80
2022-11-29T03:12:36.713Z,28.90
2022-11-29T03:13:36.686Z,28.10
2022-11-29T03:14:36.671Z,28.90
2022-11-29T03:15:36.684Z,28.80
2022-11-29T03:16:42.561Z,28.10
2022-11-29T03:17:36.628Z,29.10
2022-11-29T03:18:36.585Z,29.40
2022-11-29T03:19:36.559Z,26.70
2022-11-29T03:20:36.538Z,28.50
2022-11-29T03:21:36.519Z,29.00
2022-11-29T03:22:36.499Z,32.10
2022-11-29T03:23:36.472Z,28.10
2022-11-29T03:24:36.454Z,31.10
2022-11-29T03:25:36.429Z,29.90
2022-11-29T03:26:36.413Z,29.20
2022-11-29T03:27:36.387Z,29.80
2022-11-29T03:28:36.368Z,26.30
2022-11-29T03:29:36.347Z,26.20
2022-11-29T03:30:36.323Z,28.10
2022-11-29T03:31:36.301Z,26.70
2022-11-29T03:32:36.282Z,27.70
2022-11-29T03:33:36.284Z,26.80
2022-11-29T03:34:36.240Z,27.70
2022-11-29T03:35:36.220Z,30.40
2022-11-29T03:36:36.200Z,29.10
2022-11-29T03:37:36.171Z,28.70
2022-11-29T03:38:36.152Z,27.20
2022-11-29T03:39:36.132Z,26.30
2022-11-29T03:40:36.115Z,28.40
2022-11-29T03:41:36.087Z,29.40
2022-11-29T03:42:36.068Z,27.20
2022-11-29T03:43:36.048Z,27.50
2022-11-29T03:44:36.023Z,26.10
2022-11-29T03:45:35.999Z,25.50
2022-11-29T03:46:36.164Z,25.40
2022-11-29T03:47:35.959Z,25.00
2022-11-29T03:48:35.946Z,26.10
2022-11-29T03:49:35.939Z,26.10
2022-11-29T03:50:35.903Z,27.00
2022-11-29T03:51:35.873Z,29.90
2022-11-29T03:52:35.870Z,29.40
2022-11-29T03:53:35.832Z,26.50
2022-11-29T03:54:35.813Z,26.90
2022-11-29T03:55:35.799Z,27.30
2022-11-29T03:56:35.772Z,27.80
2022-11-29T03:57:35.746Z,27.40
2022-11-29T03:58:35.727Z,28.60
2022-11-29T03:59:35.700Z,25.60
2022-11-29T04:00:35.691Z,27.10
2022-11-29T04:01:35.789Z,26.90
2022-11-29T04:02:35.684Z,29.60
2022-11-29T04:03:35.615Z,27.90
2022-11-29T04:04:35.599Z,26.10
2022-11-29T04:05:35.595Z,26.00
2022-11-29T04:06:35.556Z,27.90
2022-11-29T04:07:35.585Z,28.10
2022-11-29T04:08:35.511Z,25.50
2022-11-29T04:09:35.489Z,25.50
2022-11-29T04:10:35.467Z,25.30
2022-11-29T04:11:35.445Z,23.80
2022-11-29T04:12:35.422Z,26.50
2022-11-29T04:13:35.405Z,25.00
2022-11-29T04:14:35.385Z,25.60
2022-11-29T04:15:35.448Z,24.10
2022-11-29T04:16:35.341Z,25.80
2022-11-29T04:17:35.316Z,28.30
2022-11-29T04:18:35.294Z,25.10
2022-11-29T04:19:35.274Z,26.40
2022-11-29T04:20:39.708Z,26.60
2022-11-29T04:21:35.247Z,25.60
2022-11-29T04:22:35.210Z,28.40
2022-11-29T04:23:35.191Z,26.60
2022-11-29T04:24:35.171Z,25.30
2022-11-29T04:25:35.148Z,25.50
2022-11-29T04:26:35.446Z,26.20
2022-11-29T04:27:35.103Z,24.80
2022-11-29T04:28:35.082Z,24.00
2022-11-29T04:29:35.061Z,26.50
2022-11-29T04:30:35.040Z,25.70
2022-11-29T04:31:35.099Z,25.70
2022-11-29T04:32:35.003Z,27.10
2022-11-29T04:33:34.969Z,25.90
2022-11-29T04:34:34.956Z,27.50
2022-11-29T04:35:34.929Z,25.60
2022-11-29T04:36:34.915Z,26.30
2022-11-29T04:37:34.906Z,27.30
2022-11-29T04:38:34.866Z,26.90
2022-11-29T04:39:34.844Z,27.60
2022-11-29T04:40:34.826Z,26.50
2022-11-29T04:41:34.805Z,28.10
2022-11-29T04:42:34.788Z,26.20
2022-11-29T04:43:34.757Z,28.30
2022-11-29T04:44:34.737Z,28.30
2022-11-29T04:45:34.714Z,27.90
2022-11-29T04:46:34.732Z,25.00
2022-11-29T04:47:34.670Z,24.90
2022-11-29T04:48:34.653Z,25.40
2022-11-29T04:49:34.631Z,23.60
2022-11-29T04:50:34.611Z,24.10
2022-11-29T04:51:34.590Z,24.10
2022-11-29T04:52:34.568Z,23.50
2022-11-29T04:53:34.570Z,23.90
2022-11-29T04:54:34.524Z,24.90
2022-11-29T04:55:34.499Z,25.50
2022-11-29T04:56:34.483Z,24.10
2022-11-29T04:57:34.461Z,25.30
2022-11-29T04:58:34.442Z,24.70
2022-11-29T04:59:34.416Z,24.70
2022-11-29T05:00:34.401Z,24.50
2022-11-29T05:01:34.417Z,23.70
2022-11-29T05:02:34.388Z,24.70
2022-11-29T05:03:34.329Z,22.80
2022-11-29T05:04:34.312Z,24.10
2022-11-29T05:05:34.288Z,22.90
2022-11-29T05:06:34.270Z,24.00
2022-11-29T05:07:34.293Z,22.40
2022-11-29T05:08:34.229Z,24.40
2022-11-29T05:09:34.242Z,22.30
2022-11-29T05:10:34.188Z,23.90
2022-11-29T05:11:34.162Z,23.20
2022-11-29T05:12:34.144Z,22.50
2022-11-29T05:13:34.124Z,24.40
2022-11-29T05:14:34.099Z,23.90
2022-11-29T05:15:34.077Z,22.90
2022-11-29T05:16:34.056Z,22.60
2022-11-29T05:17:34.039Z,24.10
2022-11-29T05:18:34.014Z,21.90
2022-11-29T05:19:34.000Z,23.50
2022-11-29T05:20:33.971Z,21.20
2022-11-29T05:21:33.945Z,29.30
2022-11-29T05:22:33.929Z,24.10
2022-11-29T05:23:33.902Z,25.10
2022-11-29T05:24:33.883Z,28.40
2022-11-29T05:25:33.887Z,21.50
2022-11-29T05:26:33.845Z,22.20
2022-11-29T05:27:33.825Z,25.80
2022-11-29T05:28:33.798Z,23.60
2022-11-29T05:29:33.775Z,21.30
2022-11-29T05:30:33.759Z,21.30
2022-11-29T05:31:33.807Z,21.70
2022-11-29T05:32:33.716Z,20.00
2022-11-29T05:33:33.690Z,20.50
2022-11-29T05:34:35.302Z,19.50
2022-11-29T05:35:33.650Z,20.40
2022-11-29T05:36:33.635Z,20.40
2022-11-29T05:37:33.607Z,20.60
2022-11-29T05:38:33.585Z,21.50
2022-11-29T05:39:33.563Z,20.60
2022-11-29T05:40:33.545Z,22.30
2022-11-29T05:41:33.548Z,21.10
2022-11-29T05:42:33.505Z,19.60
2022-11-29T05:43:33.486Z,20.80
2022-11-29T05:44:33.461Z,19.50
2022-11-29T05:45:33.445Z,17.70
2022-11-29T05:46:33.495Z,19.70
2022-11-29T05:47:33.403Z,20.50
2022-11-29T05:48:33.379Z,20.00
2022-11-29T05:49:33.356Z,19.50
2022-11-29T05:50:33.335Z,19.20
2022-11-29T05:51:33.313Z,19.80
2022-11-29T05:52:33.293Z,21.40
2022-11-29T05:53:33.264Z,20.50
2022-11-29T05:54:33.267Z,20.20
2022-11-29T05:55:33.227Z,19.20
2022-11-29T05:56:33.206Z,20.40
2022-11-29T05:57:33.205Z,19.50
2022-11-29T05:58:33.163Z,21.20
2022-11-29T05:59:33.140Z,19.90
2022-11-29T06:00:33.125Z,19.50
2022-11-29T06:01:33.199Z,20.40
2022-11-29T06:02:33.160Z,19.90
2022-11-29T06:03:33.054Z,21.00
2022-11-29T06:04:33.042Z,20.20
2022-11-29T06:05:33.011Z,21.20
2022-11-29T06:06:32.994Z,21.40
2022-11-29T06:07:33.050Z,21.30
2022-11-29T06:08:32.952Z,21.40
2022-11-29T06:09:32.932Z,22.60
2022-11-29T06:10:32.942Z,21.90
2022-11-29T06:11:32.887Z,20.70
2022-11-29T06:12:32.866Z,21.50
2022-11-29T06:13:32.864Z,21.90
2022-11-29T06:14:32.824Z,21.20
2022-11-29T06:15:32.796Z,20.70
2022-11-29T06:16:32.901Z,21.70
2022-11-29T06:17:38.590Z,23.00
2022-11-29T06:18:32.738Z,22.10
2022-11-29T06:19:32.713Z,22.00
2022-11-29T06:20:32.696Z,22.10
2022-11-29T06:21:32.684Z,21.00
2022-11-29T06:22:32.647Z,21.60
2022-11-29T06:23:32.639Z,20.80
2022-11-29T06:24:32.607Z,20.60
2022-11-29T06:25:32.585Z,21.80
2022-11-29T06:26:32.571Z,20.50
2022-11-29T06:27:32.548Z,22.00
2022-11-29T06:28:32.529Z,20.50
2022-11-29T06:29:32.526Z,20.50
2022-11-29T06:30:32.502Z,21.10
2022-11-29T06:31:32.531Z,21.40
2022-11-29T06:32:32.446Z,21.30
2022-11-29T06:33:32.429Z,21.50
2022-11-29T06:34:32.406Z,20.90
2022-11-29T06:35:32.377Z,20.00
2022-11-29T06:36:32.354Z,21.70
2022-11-29T06:37:32.331Z,21.90
2022-11-29T06:38:32.315Z,21.80
2022-11-29T06:39:32.291Z,22.20
2022-11-29T06:40:32.271Z,21.70
2022-11-29T06:41:32.248Z,21.20
2022-11-29T06:42:32.227Z,21.70
2022-11-29T06:43:32.208Z,20.50
2022-11-29T06:44:32.185Z,20.40
2022-11-29T06:45:32.185Z,21.40
2022-11-29T06:46:32.196Z,20.80
2022-11-29T06:47:32.117Z,21.10
2022-11-29T06:48:32.104Z,22.70
2022-11-29T06:49:32.078Z,21.70
2022-11-29T06:50:32.059Z,21.40
2022-11-29T06:51:32.033Z,21.70
2022-11-29T06:52:32.019Z,20.70
2022-11-29T06:53:31.995Z,22.00
2022-11-29T06:54:31.978Z,22.00
2022-11-29T06:55:31.950Z,20.30
2022-11-29T06:56:31.953Z,21.40
2022-11-29T06:57:31.906Z,20.30
2022-11-29T06:58:36.048Z,20.20
2022-11-29T06:59:31.877Z,19.70
2022-11-29T07:00:31.951Z,20.60
2022-11-29T07:01:31.930Z,20.90
2022-11-29T07:02:31.811Z,22.10
2022-11-29T07:03:31.781Z,20.90
2022-11-29T07:04:31.761Z,21.20
2022-11-29T07:05:31.734Z,21.60
2022-11-29T07:06:31.715Z,20.20
2022-11-29T07:07:31.871Z,20.10
2022-11-29T07:08:31.679Z,21.20
2022-11-29T07:09:31.661Z,21.30
2022-11-29T07:10:31.637Z,20.60
2022-11-29T07:11:31.609Z,19.80
2022-11-29T07:12:31.591Z,19.10
2022-11-29T07:13:31.579Z,18.90
2022-11-29T07:14:31.545Z,19.60
2022-11-29T07:15:31.529Z,18.90
2022-11-29T07:16:32.399Z,19.70
2022-11-29T07:17:31.497Z,18.10
2022-11-29T07:18:31.467Z,19.70
2022-11-29T07:19:31.439Z,18.60
2022-11-29T07:20:31.421Z,19.20
2022-11-29T07:21:31.393Z,19.90
2022-11-29T07:22:31.380Z,18.30
2022-11-29T07:23:31.352Z,18.90
2022-11-29T07:24:31.351Z,19.30
2022-11-29T07:25:31.311Z,17.90
2022-11-29T07:26:31.295Z,18.80
2022-11-29T07:27:31.270Z,17.40
2022-11-29T07:28:31.248Z,18.60
2022-11-29T07:29:31.232Z,17.90
2022-11-29T07:30:31.209Z,18.30
2022-11-29T07:31:31.255Z,17.60
2022-11-29T07:32:31.167Z,17.50
2022-11-29T07:33:31.162Z,17.60
2022-11-29T07:34:31.124Z,17.40
2022-11-29T07:35:31.103Z,18.30
2022-11-29T07:36:31.081Z,18.40
2022-11-29T07:37:31.058Z,18.70
2022-11-29T07:38:31.039Z,17.90
2022-11-29T07:39:31.012Z,18.40
2022-11-29T07:40:37.158Z,17.80
2022-11-29T07:41:30.976Z,19.20
2022-11-29T07:42:30.956Z,17.80
2022-11-29T07:43:30.932Z,17.50
2022-11-29T07:44:30.913Z,17.80
2022-11-29T07:45:30.891Z,18.60
2022-11-29T07:46:30.896Z,16.40
2022-11-29T07:47:35.496Z,16.80
2022-11-29T07:48:30.847Z,16.30
2022-11-29T07:49:30.827Z,16.60
2022-11-29T07:50:30.782Z,16.50
2022-11-29T07:51:30.769Z,16.60
2022-11-29T07:52:30.744Z,16.20
2022-11-29T07:53:30.720Z,17.40
2022-11-29T07:54:30.705Z,15.80
2022-11-29T07:55:30.676Z,16.30
2022-11-29T07:56:30.663Z,15.90
2022-11-29T07:57:30.632Z,15.90
2022-11-29T07:58:30.704Z,16.40
2022-11-29T07:59:30.592Z,14.20
2022-11-29T08:00:30.591Z,16.20
2022-11-29T08:01:30.548Z,16.00
2022-11-29T08:02:30.560Z,16.00
2022-11-29T08:03:30.508Z,15.20
2022-11-29T08:04:30.495Z,15.50
2022-11-29T08:05:30.485Z,15.10
2022-11-29T08:06:30.443Z,15.40
2022-11-29T08:07:30.468Z,15.90
2022-11-29T08:08:30.404Z,14.80
2022-11-29T08:09:30.378Z,15.90
2022-11-29T08:10:30.360Z,16.50
2022-11-29T08:11:30.338Z,14.90
2022-11-29T08:12:30.325Z,15.30
2022-11-29T08:13:30.296Z,16.20
2022-11-29T08:14:30.281Z,15.70
2022-11-29T08:15:30.252Z,15.00
2022-11-29T08:16:30.301Z,15.80
2022-11-29T08:17:30.217Z,16.90
2022-11-29T08:18:30.192Z,16.50
2022-11-29T08:19:31.191Z,16.40
2022-11-29T08:20:30.153Z,15.90
2022-11-29T08:21:30.148Z,15.90
2022-11-29T08:22:30.105Z,16.30
2022-11-29T08:23:30.085Z,15.90
2022-11-29T08:24:30.065Z,17.30
2022-11-29T08:25:30.063Z,16.10
2022-11-29T08:26:31.808Z,15.80
2022-11-29T08:27:30.020Z,15.80
2022-11-29T08:28:29.975Z,17.10
2022-11-29T08:29:29.956Z,18.10
2022-11-29T08:30:29.933Z,18.10
2022-11-29T08:31:29.960Z,18.20
2022-11-29T08:32:29.894Z,17.80
2022-11-29T08:33:29.868Z,19.30
2022-11-29T08:34:29.847Z,17.70
2022-11-29T08:35:29.833Z,17.90
2022-11-29T08:36:29.806Z,16.30
2022-11-29T08:37:29.816Z,15.10
2022-11-29T08:38:29.765Z,15.60
2022-11-29T08:39:29.748Z,15.70
2022-11-29T08:40:29.729Z,15.40
2022-11-29T08:41:29.708Z,15.40
2022-11-29T08:42:29.681Z,15.20
2022-11-29T08:43:29.666Z,15.60
2022-11-29T08:44:29.647Z,15.20
2022-11-29T08:45:29.693Z,15.80
2022-11-29T08:46:29.598Z,14.90
2022-11-29T08:47:29.586Z,15.60
2022-11-29T08:48:29.569Z,15.20
2022-11-29T08:49:29.537Z,15.20
2022-11-29T08:50:29.516Z,15.60
2022-11-29T08:51:29.495Z,15.40
2022-11-29T08:52:29.486Z,16.40
2022-11-29T08:53:29.474Z,16.00
2022-11-29T08:54:29.425Z,15.70
2022-11-29T08:55:29.411Z,16.00
2022-11-29T08:57:16.503Z,15.20
2022-11-29T08:57:39.885Z,15.30
2022-11-29T08:58:29.341Z,15.80
2022-11-29T08:59:29.327Z,15.60
2022-11-29T09:00:29.300Z,16.70
2022-11-29T09:01:29.535Z,16.20
2022-11-29T09:02:29.390Z,17.40
2022-11-29T09:03:29.238Z,17.10
2022-11-29T09:04:29.218Z,15.90
2022-11-29T09:05:29.198Z,16.80
2022-11-29T09:06:29.176Z,17.30
2022-11-29T09:07:29.242Z,18.70
2022-11-29T09:08:29.144Z,17.80
2022-11-29T09:09:29.133Z,17.70
2022-11-29T09:10:29.108Z,17.40
2022-11-29T09:11:29.083Z,16.80
2022-11-29T09:12:29.048Z,18.90
2022-11-29T09:13:29.032Z,18.40
2022-11-29T09:14:29.009Z,18.90
2022-11-29T09:15:28.987Z,18.40
2022-11-29T09:16:29.053Z,18.50
2022-11-29T09:17:28.946Z,18.30
2022-11-29T09:18:28.939Z,18.50
2022-11-29T09:19:28.922Z,18.70
2022-11-29T09:20:28.881Z,19.20
2022-11-29T09:21:28.862Z,19.10
2022-11-29T09:22:28.848Z,18.80
2022-11-29T09:23:28.825Z,18.80
2022-11-29T09:24:28.800Z,20.30
2022-11-29T09:25:28.828Z,18.20
2022-11-29T09:26:28.775Z,19.60
2022-11-29T09:27:28.741Z,19.70
2022-11-29T09:28:28.716Z,18.90
2022-11-29T09:29:28.698Z,20.00
2022-11-29T09:30:28.687Z,20.00
2022-11-29T09:31:28.674Z,19.60
2022-11-29T09:32:28.684Z,19.60
2022-11-29T09:33:28.618Z,21.00
2022-11-29T09:34:28.603Z,20.70
2022-11-29T09:35:28.580Z,20.10
2022-11-29T09:36:29.418Z,19.40
2022-11-29T09:37:28.528Z,19.50
2022-11-29T09:38:28.503Z,20.00
2022-11-29T09:39:28.488Z,19.40
2022-11-29T09:40:28.458Z,20.00
2022-11-29T09:41:28.481Z,19.90
2022-11-29T09:42:28.414Z,19.50
2022-11-29T09:43:28.394Z,20.80
2022-11-29T09:44:28.375Z,19.40
2022-11-29T09:45:28.352Z,21.50
2022-11-29T09:46:28.344Z,21.50
2022-11-29T09:47:28.319Z,21.20
2022-11-29T09:48:28.297Z,21.00
2022-11-29T09:49:28.281Z,20.10
2022-11-29T09:50:28.246Z,21.20
2022-11-29T09:51:28.233Z,20.50
2022-11-29T09:52:28.216Z,19.80
2022-11-29T09:53:28.188Z,20.70
2022-11-29T09:54:28.178Z,21.30
2022-11-29T09:55:28.162Z,20.30
2022-11-29T09:56:28.129Z,20.50
2022-11-29T09:57:28.121Z,20.90
2022-11-29T09:58:28.086Z,20.00
2022-11-29T09:59:28.072Z,19.50
2022-11-29T10:00:28.040Z,20.50
2022-11-29T10:01:28.227Z,21.70
2022-11-29T10:02:28.023Z,21.30
2022-11-29T10:03:28.003Z,20.90
2022-11-29T10:04:27.962Z,21.60
2022-11-29T10:05:27.943Z,21.60
2022-11-29T10:06:27.915Z,21.60
2022-11-29T10:07:27.932Z,23.20
2022-11-29T10:08:27.869Z,22.40
2022-11-29T10:09:33.367Z,22.50
2022-11-29T10:10:27.828Z,22.30
2022-11-29T10:11:27.829Z,22.40
2022-11-29T10:12:27.785Z,22.70
2022-11-29T10:13:27.845Z,23.00
2022-11-29T10:14:27.741Z,23.40
2022-11-29T10:15:27.729Z,21.30
2022-11-29T10:16:27.752Z,22.80
2022-11-29T10:17:27.690Z,22.30
2022-11-29T10:18:27.663Z,24.20
2022-11-29T10:19:27.651Z,25.40
2022-11-29T10:20:27.615Z,22.70
2022-11-29T10:21:27.606Z,22.20
2022-11-29T10:22:27.583Z,22.60
2022-11-29T10:23:27.564Z,23.10
2022-11-29T10:24:27.531Z,23.40
2022-11-29T10:25:27.527Z,22.50
2022-11-29T10:26:33.542Z,23.30
2022-11-29T10:27:27.479Z,23.40
2022-11-29T10:28:27.450Z,21.30
2022-11-29T10:29:27.466Z,23.20
2022-11-29T10:30:27.527Z,22.20
2022-11-29T10:31:27.408Z,22.70
2022-11-29T10:32:27.365Z,21.70
2022-11-29T10:33:27.343Z,23.20
2022-11-29T10:34:27.328Z,21.80
2022-11-29T10:35:27.304Z,20.40
2022-11-29T10:36:27.278Z,21.20
2022-11-29T10:37:27.261Z,20.50
2022-11-29T10:38:31.633Z,19.30
2022-11-29T10:39:27.233Z,20.20
2022-11-29T10:40:27.209Z,20.00
2022-11-29T10:41:27.185Z,20.10
2022-11-29T10:42:27.152Z,20.30
2022-11-29T10:43:27.134Z,19.90
2022-11-29T10:44:27.120Z,19.80
2022-11-29T10:45:27.115Z,19.80
2022-11-29T10:46:27.096Z,20.30
2022-11-29T10:47:27.052Z,21.10
2022-11-29T10:48:27.036Z,19.50
2022-11-29T10:49:27.005Z,20.50
2022-11-29T10:50:26.988Z,21.30
2022-11-29T10:51:26.964Z,20.10
2022-11-29T10:52:26.948Z,20.90
2022-11-29T10:53:26.935Z,21.00
2022-11-29T10:54:26.896Z,20.70
2022-11-29T10:55:26.884Z,20.10
2022-11-29T10:56:27.178Z,21.20
2022-11-29T10:57:27.377Z,21.30
2022-11-29T10:58:28.561Z,20.90
2022-11-29T10:59:26.827Z,21.70
2022-11-29T11:00:26.781Z,20.50
2022-11-29T11:01:26.832Z,21.70
2022-11-29T11:02:26.737Z,21.40
2022-11-29T11:03:26.713Z,20.80
2022-11-29T11:04:26.688Z,20.40
2022-11-29T11:05:26.751Z,19.90
2022-11-29T11:06:26.662Z,22.30
2022-11-29T11:07:26.719Z,21.20
2022-11-29T11:08:26.604Z,21.50
2022-11-29T11:09:26.589Z,21.70
2022-11-29T11:10:26.571Z,21.30
2022-11-29T11:11:26.548Z,21.80
2022-11-29T11:12:26.519Z,21.10
2022-11-29T11:13:26.503Z,22.10
2022-11-29T11:14:26.476Z,20.80
2022-11-29T11:15:26.543Z,21.20
2022-11-29T11:16:26.497Z,21.50
2022-11-29T11:17:26.653Z,21.90
2022-11-29T11:18:26.394Z,21.40
2022-11-29T11:19:26.382Z,21.90
2022-11-29T11:20:26.355Z,22.50
2022-11-29T11:21:26.331Z,21.90
2022-11-29T11:22:26.311Z,22.40
2022-11-29T11:23:26.308Z,22.70
2022-11-29T11:24:26.264Z,22.60
2022-11-29T11:25:26.250Z,22.70
2022-11-29T11:26:26.577Z,22.50
2022-11-29T11:27:26.204Z,21.60
2022-11-29T11:28:26.206Z,22.00
2022-11-29T11:29:26.169Z,22.30
2022-11-29T11:30:26.138Z,20.70
2022-11-29T11:31:26.200Z,19.70
2022-11-29T11:32:26.420Z,20.30
2022-11-29T11:33:26.101Z,19.90
2022-11-29T11:34:26.060Z,17.80
2022-11-29T11:35:26.037Z,17.10
2022-11-29T11:36:26.335Z,16.20
2022-11-29T11:37:26.343Z,15.30
2022-11-29T11:38:25.980Z,15.30
2022-11-29T11:39:25.951Z,15.50
2022-11-29T11:40:26.349Z,14.90
2022-11-29T11:41:26.231Z,14.20
2022-11-29T11:42:26.223Z,14.00
2022-11-29T11:43:26.194Z,13.50
2022-11-29T11:44:46.535Z,12.80
2022-11-29T11:45:25.825Z,13.30
2022-11-29T11:46:25.843Z,13.30
2022-11-29T11:47:25.790Z,14.40
2022-11-29T11:48:25.762Z,14.80
2022-11-29T11:49:25.766Z,16.20
2022-11-29T11:50:25.715Z,15.30
2022-11-29T11:51:25.699Z,16.20
2022-11-29T11:52:25.676Z,15.90
2022-11-29T11:53:25.651Z,17.10
2022-11-29T11:54:25.630Z,16.90
2022-11-29T11:55:25.624Z,16.80
2022-11-29T11:56:25.590Z,16.90
2022-11-29T11:57:25.569Z,18.00
2022-11-29T11:58:25.555Z,18.70
2022-11-29T11:59:25.530Z,19.40
2022-11-29T12:00:55.463Z,18.90
2022-11-29T12:01:25.490Z,19.70
2022-11-29T12:02:25.590Z,19.70
2022-11-29T12:03:25.487Z,21.50
2022-11-29T12:04:25.425Z,20.10
2022-11-29T12:05:25.432Z,21.00
2022-11-29T12:06:25.377Z,20.50
2022-11-29T12:07:38.930Z,21.30
2022-11-29T12:08:25.382Z,20.30
2022-11-29T12:09:25.317Z,20.60
2022-11-29T12:10:25.334Z,20.00
2022-11-29T12:11:25.283Z,20.30
2022-11-29T12:12:25.257Z,21.00
2022-11-29T12:13:25.978Z,19.80
2022-11-29T12:14:25.229Z,20.40
2022-11-29T12:15:25.205Z,19.60
2022-11-29T12:16:25.490Z,20.70
2022-11-29T12:17:25.147Z,20.70
2022-11-29T12:19:25.111Z,20.40
2022-11-29T12:20:25.082Z,19.80
2022-11-29T12:21:25.078Z,19.70
2022-11-29T12:22:25.072Z,20.20
2022-11-29T12:23:25.026Z,19.10
2022-11-29T12:24:24.998Z,19.30
2022-11-29T12:25:24.973Z,21.30
2022-11-29T12:26:55.458Z,21.50
2022-11-29T12:27:24.941Z,22.40
2022-11-29T12:28:24.913Z,21.90
2022-11-29T12:29:24.892Z,21.20
2022-11-29T12:30:24.881Z,22.10
2022-11-29T12:31:24.896Z,22.60
2022-11-29T12:32:24.827Z,22.30
2022-11-29T12:33:24.818Z,22.60
2022-11-29T12:34:24.794Z,23.10
2022-11-29T12:35:24.781Z,22.00
2022-11-29T12:36:24.777Z,23.70
2022-11-29T12:37:24.761Z,20.80
2022-11-29T12:38:24.709Z,21.40
2022-11-29T12:39:24.695Z,22.00
2022-11-29T12:40:24.678Z,21.90
2022-11-29T12:41:24.650Z,23.20
2022-11-29T12:42:24.629Z,23.50
2022-11-29T12:43:24.593Z,22.90
2022-11-29T12:44:24.580Z,22.30
2022-11-29T12:45:24.555Z,21.00
2022-11-29T12:46:24.549Z,22.30
2022-11-29T12:47:40.163Z,21.40
2022-11-29T12:48:24.488Z,21.20
2022-11-29T12:49:24.476Z,21.30
2022-11-29T12:50:24.443Z,19.90
2022-11-29T12:51:24.446Z,19.90
2022-11-29T12:52:24.418Z,20.00
2022-11-29T12:53:27.453Z,18.70